Friday, August 1, 2014, 1:44 AM EDT

KFYJ, West Point, Middle Peninsula Regional Airport

Location: Shacklefords, VA, United States Lat: 37.521
Local Time: 1:44 AM EDT ( 5:44 GMT) Lon: -76.764
Time Zone: US/Eastern Elev: 22 ft

Show me the last for .
Show Decoded

2014-08-01 01:35 METAR KFYJ 010535Z AUTO 15003KT 10SM BKN120 25/19 A3019 RMK AO2 T02450185 =
2014-08-01 01:15 METAR KFYJ 010515Z AUTO 17004KT 10SM SCT120 25/19 A3019 RMK AO2 T02460186 =
2014-08-01 00:55 METAR KFYJ 010455Z AUTO 17004KT 10SM SCT120 25/19 A3018 RMK AO2 T02450186 =
2014-08-01 00:15 METAR KFYJ 010415Z AUTO 15004KT 10SM CLR 25/20 A3018 RMK AO2 T02450198 =
2014-07-31 23:55 METAR KFYJ 010355Z AUTO 14004KT 10SM CLR 24/20 A3017 RMK AO2 T02380203 =
2014-07-31 23:35 METAR KFYJ 010335Z AUTO 10003KT 10SM CLR 23/20 A3017 RMK AO2 T02310198 =
2014-07-31 23:15 METAR KFYJ 010315Z AUTO 00000KT 10SM CLR 24/20 A3016 RMK AO2 T02350197 =
2014-07-31 22:35 METAR KFYJ 010235Z AUTO 00000KT 10SM CLR 23/20 A3016 RMK AO2 T02340199 =
2014-07-31 22:15 METAR KFYJ 010215Z AUTO 00000KT 10SM CLR 24/20 A3016 RMK AO2 T02350197 =
2014-07-31 21:55 METAR KFYJ 010155Z AUTO 00000KT 10SM CLR 24/20 A3016 RMK AO2 T02410196 =
2014-07-31 21:35 METAR KFYJ 010135Z AUTO 00000KT 10SM CLR 24/19 A3015 RMK AO2 T02440194 =
2014-07-31 21:15 METAR KFYJ 010115Z AUTO 00000KT 10SM CLR 26/19 A3015 RMK AO2 T02560190 =
2014-07-31 20:55 METAR KFYJ 010055Z AUTO 17003KT 10SM CLR 26/19 A3015 RMK AO2 T02610188 =
2014-07-31 20:35 METAR KFYJ 010035Z AUTO 00000KT 10SM CLR 27/19 A3014 RMK AO2 T02650187 =
2014-07-31 20:15 METAR KFYJ 010015Z AUTO 18003KT 10SM CLR 27/19 A3014 RMK AO2 T02680185 =
2014-07-31 19:55 METAR KFYJ 312355Z AUTO 17004KT 10SM CLR 27/19 A3014 RMK AO2 T02720185 10302
                 20272 =
2014-07-31 19:35 METAR KFYJ 312335Z AUTO 17004KT 10SM CLR 28/19 A3014 RMK AO2 T02760186 =
2014-07-31 19:15 METAR KFYJ 312315Z AUTO 17004KT 10SM CLR 28/19 A3013 RMK AO2 T02800186 =
2014-07-31 18:55 METAR KFYJ 312255Z AUTO 16006KT 10SM CLR 28/19 A3013 RMK AO2 T02830186 =
2014-07-31 18:35 METAR KFYJ 312235Z AUTO 14005KT 10SM CLR 29/19 A3012 RMK AO2 T02860185 =
2014-07-31 18:15 METAR KFYJ 312215Z AUTO 16004KT 10SM CLR 29/18 A3012 RMK AO2 T02910175 =
2014-07-31 17:55 METAR KFYJ 312155Z AUTO 19004KT 10SM CLR 29/17 A3013 RMK AO2 T02930168 =
2014-07-31 17:35 METAR KFYJ 312135Z AUTO 20005KT 10SM CLR 30/16 A3012 RMK AO2 T02950164 =
2014-07-31 17:15 METAR KFYJ 312115Z AUTO 21003KT 10SM CLR 30/17 A3013 RMK AO2 T02990167 =
2014-07-31 16:55 METAR KFYJ 312055Z AUTO 18004KT 10SM CLR 30/17 A3013 RMK AO2 T03010165 =
2014-07-31 16:35 METAR KFYJ 312035Z AUTO 19004KT 10SM CLR 30/17 A3013 RMK AO2 T02970165 =
2014-07-31 16:15 METAR KFYJ 312015Z AUTO 19006KT 10SM CLR 30/16 A3013 RMK AO2 T02990164 =
2014-07-31 15:55 METAR KFYJ 311955Z AUTO 19006KT 10SM SCT041 30/16 A3013 RMK AO2 T02970162 =
2014-07-31 15:35 METAR KFYJ 311935Z AUTO 18004KT 10SM CLR 30/17 A3013 RMK AO2 T02970170 =
2014-07-31 15:15 METAR KFYJ 311915Z AUTO 19004KT 10SM SCT040 SCT050 30/17 A3013 RMK AO2 T03000171
                 =
2014-07-31 14:55 METAR KFYJ 311855Z AUTO 18006KT 10SM SCT040 SCT050 30/17 A3013 RMK AO2 T02980165
                 =
2014-07-31 14:35 METAR KFYJ 311835Z AUTO 19006KT 10SM SCT040 29/17 A3014 RMK AO2 T02940165 =
2014-07-31 13:55 METAR KFYJ 311755Z AUTO 21004KT 10SM CLR 29/17 A3014 RMK AO2 T02900169 10292
                 20225 =
2014-07-31 13:35 METAR KFYJ 311735Z AUTO 20006KT 10SM CLR 29/16 A3014 RMK AO2 T02870158 =
2014-07-31 13:15 METAR KFYJ 311715Z AUTO 20006KT 10SM CLR 29/16 A3014 RMK AO2 T02920159 =
2014-07-31 12:55 METAR KFYJ 311655Z AUTO 23005KT 10SM SCT065 29/17 A3014 RMK AO2 T02900169 =
2014-07-31 12:35 METAR KFYJ 311635Z AUTO 20007KT 10SM CLR 29/16 A3015 RMK AO2 T02870163 =
2014-07-31 12:15 METAR KFYJ 311615Z AUTO 21007KT 10SM CLR 29/18 A3015 RMK AO2 T02850176 =
2014-07-31 11:55 METAR KFYJ 311555Z AUTO 20006KT 10SM CLR 28/18 A3015 RMK AO2 T02820178 =
2014-07-31 11:35 METAR KFYJ 311535Z AUTO 25006KT 10SM CLR 28/18 A3016 RMK AO2 T02790177 =
2014-07-31 11:15 METAR KFYJ 311515Z AUTO 21006KT 10SM CLR 28/18 A3016 RMK AO2 T02750179 =
2014-07-31 10:55 METAR KFYJ 311455Z AUTO 22006KT 10SM CLR 27/18 A3016 RMK AO2 T02730182 =
2014-07-31 10:35 METAR KFYJ 311435Z AUTO 22007KT 10SM CLR 27/18 A3015 RMK AO2 T02710184 =
2014-07-31 10:15 METAR KFYJ 311415Z AUTO 19006KT 10SM CLR 27/18 A3015 RMK AO2 T02670181 =
2014-07-31 09:55 METAR KFYJ 311355Z AUTO 19004KT 10SM CLR 26/18 A3015 RMK AO2 T02610183 =
2014-07-31 09:35 METAR KFYJ 311335Z AUTO 17004KT 10SM CLR 25/18 A3015 RMK AO2 T02530182 =
2014-07-31 09:15 METAR KFYJ 311315Z AUTO 20004KT 10SM CLR 25/18 A3015 RMK AO2 T02470184 =
2014-07-31 08:55 METAR KFYJ 311255Z AUTO 17003KT 10SM CLR 24/18 A3015 RMK AO2 T02410180 =
2014-07-31 08:35 METAR KFYJ 311235Z AUTO 19005KT 10SM CLR 24/18 A3015 RMK AO2 T02360181 =
2014-07-31 08:15 METAR KFYJ 311215Z AUTO 17004KT 10SM CLR 23/18 A3014 RMK AO2 T02300184 =
2014-07-31 07:55 METAR KFYJ 311155Z AUTO 17003KT 10SM CLR 22/19 A3014 RMK AO2 T02240185 10224
                 20192 =
2014-07-31 07:35 METAR KFYJ 311135Z AUTO 18004KT 10SM CLR 22/18 A3014 RMK AO2 T02190181 =
2014-07-31 07:15 METAR KFYJ 311115Z AUTO 00000KT 10SM CLR 22/18 A3013 RMK AO2 T02150181 =
2014-07-31 06:55 METAR KFYJ 311055Z AUTO 00000KT 10SM CLR 21/18 A3013 RMK AO2 T02090180 =
2014-07-31 06:35 METAR KFYJ 311035Z AUTO 00000KT 10SM CLR 19/17 A3013 RMK AO2 T01940169 =
2014-07-31 06:15 METAR KFYJ 311015Z AUTO 17003KT 10SM CLR 21/18 A3012 RMK AO2 T02050175 =
2014-07-31 05:55 METAR KFYJ 310955Z AUTO 00000KT 10SM CLR 20/17 A3012 RMK AO2 T02000174 =
2014-07-31 05:35 METAR KFYJ 310935Z AUTO 00000KT 10SM CLR 20/18 A3011 RMK AO2 T02040175 =
2014-07-31 05:15 METAR KFYJ 310915Z AUTO 00000KT 10SM CLR 21/18 A3011 RMK AO2 T02070175 =
2014-07-31 04:55 METAR KFYJ 310855Z AUTO 14003KT 10SM CLR 21/18 A3011 RMK AO2 T02060175 =
2014-07-31 04:35 METAR KFYJ 310835Z AUTO 14003KT 10SM CLR 21/17 A3011 RMK AO2 T02050172 =
2014-07-31 04:15 METAR KFYJ 310815Z AUTO 00000KT 10SM CLR 21/17 A3010 RMK AO2 T02070172 =
2014-07-31 03:35 METAR KFYJ 310735Z AUTO 14004KT 10SM CLR 21/17 A3011 RMK AO2 T02060170 =
2014-07-31 03:15 METAR KFYJ 310715Z AUTO 13003KT 10SM CLR 20/17 A3011 RMK AO2 T02040170 =
2014-07-31 02:55 METAR KFYJ 310655Z AUTO 12003KT 10SM CLR 20/17 A3011 RMK AO2 T02010166 =
2014-07-31 02:35 METAR KFYJ 310635Z AUTO 00000KT 10SM CLR 20/17 A3011 RMK AO2 T02040165 =
2014-07-31 02:15 METAR KFYJ 310615Z AUTO 00000KT 10SM CLR 22/17 A3011 RMK AO2 T02150166 =
2014-07-31 01:55 METAR KFYJ 310555Z AUTO 00000KT 10SM CLR 21/17 A3010 RMK AO2 T02140168 10238
                 20190 402750176 =

Support USWX by starting your Amazon purchase here.